createdAt,value
2023-04-12T00:00:57.604Z,999.63
2023-04-12T00:05:57.520Z,999.59
2023-04-12T00:10:57.467Z,999.59
2023-04-12T00:15:57.453Z,999.49
2023-04-12T00:20:57.331Z,999.54
2023-04-12T00:25:57.267Z,999.45
2023-04-12T00:30:57.242Z,999.51
2023-04-12T00:35:57.228Z,999.27
2023-04-12T00:40:57.086Z,999.23
2023-04-12T00:45:57.040Z,999.21
2023-04-12T00:50:56.977Z,999.21
2023-04-12T00:55:56.892Z,999.15
2023-04-12T01:00:56.895Z,999.18
2023-04-12T01:05:56.762Z,999.01
2023-04-12T01:10:56.694Z,999.00
2023-04-12T01:15:56.664Z,998.96
2023-04-12T01:20:56.560Z,998.91
2023-04-12T01:25:56.501Z,998.88
2023-04-12T01:30:56.443Z,998.89
2023-04-12T01:35:56.387Z,998.84
2023-04-12T01:40:56.300Z,998.76
2023-04-12T01:45:56.257Z,998.68
2023-04-12T01:50:56.169Z,998.59
2023-04-12T01:55:56.098Z,998.51
2023-04-12T02:00:56.087Z,998.46
2023-04-12T02:05:55.982Z,998.30
2023-04-12T02:10:55.906Z,998.32
2023-04-12T02:15:55.838Z,998.22
2023-04-12T02:20:55.762Z,998.21
2023-04-12T02:25:55.709Z,998.09
2023-04-12T02:30:55.652Z,998.09
2023-04-12T02:35:55.587Z,998.10
2023-04-12T02:40:55.526Z,998.07
2023-04-12T02:45:55.481Z,998.10
2023-04-12T02:50:55.382Z,998.00
2023-04-12T02:55:55.324Z,998.01
2023-04-12T03:00:55.227Z,998.10
2023-04-12T03:05:55.295Z,998.09
2023-04-12T03:10:55.107Z,998.04
2023-04-12T03:15:55.068Z,997.87
2023-04-12T03:20:54.970Z,997.94
2023-04-12T03:25:54.913Z,997.68
2023-04-12T03:30:54.839Z,997.70
2023-04-12T03:35:54.808Z,997.70
2023-04-12T03:40:54.687Z,997.69
2023-04-12T03:45:54.632Z,997.48
2023-04-12T03:50:54.589Z,997.56
2023-04-12T03:55:54.510Z,997.54
2023-04-12T04:00:54.446Z,997.39
2023-04-12T04:05:54.390Z,997.41
2023-04-12T04:10:54.305Z,997.31
2023-04-12T04:15:54.277Z,997.26
2023-04-12T04:20:54.175Z,997.21
2023-04-12T04:25:54.121Z,997.26
2023-04-12T04:30:54.047Z,997.21
2023-04-12T04:35:54.020Z,997.27
2023-04-12T04:40:53.968Z,997.15
2023-04-12T04:45:53.878Z,997.07
2023-04-12T04:50:53.782Z,997.14
2023-04-12T04:55:53.721Z,997.00
2023-04-12T05:00:53.911Z,997.03
2023-04-12T05:05:53.620Z,996.99
2023-04-12T05:10:53.528Z,997.03
2023-04-12T05:15:53.491Z,996.98
2023-04-12T05:20:53.418Z,997.03
2023-04-12T05:25:53.322Z,997.00
2023-04-12T05:30:53.302Z,996.90
2023-04-12T05:35:53.259Z,996.88
2023-04-12T05:40:53.119Z,996.87
2023-04-12T05:45:53.265Z,996.77
2023-04-12T05:50:53.014Z,996.62
2023-04-12T05:55:52.956Z,996.60
2023-04-12T06:00:52.862Z,996.34
2023-04-12T06:05:52.831Z,996.27
2023-04-12T06:10:52.724Z,996.13
2023-04-12T06:15:52.742Z,996.08
2023-04-12T06:20:52.592Z,995.85
2023-04-12T06:25:52.523Z,995.78
2023-04-12T06:30:52.456Z,995.68
2023-04-12T06:35:52.429Z,995.63
2023-04-12T06:40:52.325Z,995.48
2023-04-12T06:45:52.260Z,995.43
2023-04-12T06:50:52.193Z,995.32
2023-04-12T06:55:52.153Z,995.32
2023-04-12T07:00:52.149Z,995.24
2023-04-12T07:05:52.008Z,995.13
2023-04-12T07:10:51.949Z,995.02
2023-04-12T07:15:51.887Z,995.02
2023-04-12T07:20:51.853Z,994.91
2023-04-12T07:25:51.760Z,994.80
2023-04-12T07:30:51.679Z,994.84
2023-04-12T07:35:51.667Z,994.70
2023-04-12T07:40:51.559Z,994.56
2023-04-12T07:45:51.508Z,994.44
2023-04-12T07:50:51.494Z,994.38
2023-04-12T07:55:51.365Z,994.24
2023-04-12T08:00:51.296Z,994.14
2023-04-12T08:05:51.299Z,993.97
2023-04-12T08:10:51.168Z,993.88
2023-04-12T08:15:51.127Z,993.70
2023-04-12T08:20:51.037Z,993.65
2023-04-12T08:25:50.954Z,993.64
2023-04-12T08:30:50.964Z,993.52
2023-04-12T08:35:50.857Z,993.45
2023-04-12T08:40:50.766Z,993.31
2023-04-12T08:45:50.706Z,993.28
2023-04-12T08:50:50.759Z,993.24
2023-04-12T08:55:50.566Z,993.16
2023-04-12T09:00:50.496Z,992.97
2023-04-12T09:05:50.427Z,993.03
2023-04-12T09:10:50.362Z,993.02
2023-04-12T09:15:50.296Z,992.98
2023-04-12T09:20:50.218Z,992.93
2023-04-12T09:25:50.170Z,992.83
2023-04-12T09:30:50.089Z,992.80
2023-04-12T09:35:50.114Z,992.68
2023-04-12T09:40:49.960Z,992.54
2023-04-12T09:45:49.954Z,992.42
2023-04-12T09:50:49.865Z,992.34
2023-04-12T09:55:49.753Z,992.31
2023-04-12T10:00:49.697Z,992.18
2023-04-12T10:05:49.624Z,992.14
2023-04-12T10:10:49.573Z,991.96
2023-04-12T10:15:49.579Z,991.90
2023-04-12T10:20:49.413Z,991.91
2023-04-12T10:25:49.396Z,991.78
2023-04-12T10:30:49.314Z,991.52
2023-04-12T10:35:49.269Z,991.41
2023-04-12T10:40:49.149Z,991.48
2023-04-12T10:45:49.123Z,991.47
2023-04-12T10:50:49.107Z,991.33
2023-04-12T10:55:48.972Z,991.29
2023-04-12T11:00:48.998Z,991.30
2023-04-12T11:05:48.915Z,991.26
2023-04-12T11:10:48.791Z,991.18
2023-04-12T11:15:48.704Z,991.23
2023-04-12T11:20:48.644Z,991.01
2023-04-12T11:25:48.587Z,990.90
2023-04-12T11:30:48.496Z,990.89
2023-04-12T11:35:48.430Z,990.80
2023-04-12T11:40:48.350Z,990.65
2023-04-12T11:45:48.305Z,990.63
2023-04-12T11:50:54.306Z,990.39
2023-04-12T11:55:49.173Z,990.37
2023-04-12T12:00:48.094Z,990.20
2023-04-12T12:05:48.433Z,990.17
2023-04-12T12:11:06.441Z,990.00
2023-04-12T12:15:48.914Z,990.00
2023-04-12T12:20:47.835Z,989.78
2023-04-12T12:25:47.762Z,989.76
2023-04-12T12:30:47.704Z,989.59
2023-04-12T12:35:47.678Z,989.41
2023-04-12T12:40:47.576Z,989.25
2023-04-12T12:45:47.493Z,989.22
2023-04-12T12:50:47.426Z,989.14
2023-04-12T12:55:47.375Z,989.04
2023-04-12T13:00:47.290Z,988.88
2023-04-12T13:05:47.258Z,989.00
2023-04-12T13:10:47.177Z,988.98
2023-04-12T13:15:47.097Z,988.89
2023-04-12T13:20:47.033Z,988.93
2023-04-12T13:25:47.012Z,988.74
2023-04-12T13:30:46.893Z,988.69
2023-04-12T13:35:46.846Z,988.54
2023-04-12T13:40:46.770Z,988.63
2023-04-12T13:45:46.769Z,988.60
2023-04-12T13:50:48.906Z,988.50
2023-04-12T13:55:46.615Z,988.55
2023-04-12T14:00:46.563Z,988.44
2023-04-12T14:05:46.436Z,988.44
2023-04-12T14:10:46.403Z,988.45
2023-04-12T14:15:46.299Z,988.44
2023-04-12T14:20:46.229Z,988.49
2023-04-12T14:25:46.171Z,988.50
2023-04-12T14:30:46.125Z,988.58
2023-04-12T14:35:46.069Z,988.62
2023-04-12T14:40:45.959Z,988.69
2023-04-12T14:45:45.907Z,988.67
2023-04-12T14:50:45.835Z,988.74
2023-04-12T14:55:45.779Z,988.77
2023-04-12T15:00:46.248Z,988.83
2023-04-12T15:05:45.639Z,988.87
2023-04-12T15:10:45.569Z,988.75
2023-04-12T15:15:45.491Z,988.80
2023-04-12T15:20:45.429Z,988.79
2023-04-12T15:25:45.359Z,988.80
2023-04-12T15:30:45.289Z,988.61
2023-04-12T15:35:45.233Z,988.73
2023-04-12T15:40:45.156Z,988.65
2023-04-12T15:45:45.142Z,988.68
2023-04-12T15:50:45.029Z,988.43
2023-04-12T15:55:44.987Z,988.34
2023-04-12T16:00:44.891Z,988.37
2023-04-12T16:05:44.831Z,988.32
2023-04-12T16:10:44.757Z,988.23
2023-04-12T16:15:44.775Z,988.16
2023-04-12T16:20:44.630Z,988.21
2023-04-12T16:25:44.571Z,988.07
2023-04-12T16:30:44.559Z,987.98
2023-04-12T16:35:44.432Z,987.94
2023-04-12T16:40:44.363Z,987.77
2023-04-12T16:45:44.292Z,987.72
2023-04-12T16:50:44.229Z,987.66
2023-04-12T16:55:44.174Z,987.51
2023-04-12T17:00:44.100Z,987.39
2023-04-12T17:05:44.020Z,987.18
2023-04-12T17:10:43.951Z,987.20
2023-04-12T17:15:43.981Z,987.28
2023-04-12T17:20:43.816Z,987.34
2023-04-12T17:25:43.742Z,987.15
2023-04-12T17:30:43.690Z,987.33
2023-04-12T17:35:43.626Z,987.30
2023-04-12T17:40:43.556Z,987.22
2023-04-12T17:45:43.489Z,987.29
2023-04-12T17:50:43.420Z,987.32
2023-04-12T17:55:43.369Z,987.31
2023-04-12T18:00:43.292Z,987.30
2023-04-12T18:05:43.233Z,987.27
2023-04-12T18:10:43.166Z,987.23
2023-04-12T18:15:43.118Z,987.25
2023-04-12T18:20:43.070Z,987.19
2023-04-12T18:25:42.978Z,987.17
2023-04-12T18:30:42.890Z,987.11
2023-04-12T18:35:42.839Z,987.15
2023-04-12T18:40:42.753Z,987.19
2023-04-12T18:45:42.692Z,987.16
2023-04-12T18:50:42.628Z,987.25
2023-04-12T18:55:42.558Z,987.28
2023-04-12T19:00:42.520Z,987.30
2023-04-12T19:05:42.432Z,987.30
2023-04-12T19:10:42.355Z,987.26
2023-04-12T19:15:42.326Z,987.17
2023-04-12T19:20:42.219Z,987.25
2023-04-12T19:25:42.156Z,987.25
2023-04-12T19:30:42.076Z,987.20
2023-04-12T19:35:42.033Z,987.17
2023-04-12T19:40:41.952Z,986.91
2023-04-12T19:45:41.912Z,986.88
2023-04-12T19:50:41.819Z,986.63
2023-04-12T19:55:41.743Z,986.55
2023-04-12T20:00:41.673Z,986.44
2023-04-12T20:05:41.608Z,986.40
2023-04-12T20:10:41.535Z,986.44
2023-04-12T20:15:41.473Z,986.70
2023-04-12T20:20:41.394Z,986.71
2023-04-12T20:25:41.358Z,986.83
2023-04-12T20:30:41.330Z,987.05
2023-04-12T20:35:41.202Z,987.01
2023-04-12T20:40:41.123Z,987.02
2023-04-12T20:45:41.062Z,987.08
2023-04-12T20:50:40.992Z,987.03
2023-04-12T20:55:40.978Z,987.21
2023-04-12T21:00:40.846Z,987.07
2023-04-12T21:05:40.886Z,987.03
2023-04-12T21:10:40.729Z,987.07
2023-04-12T21:15:40.779Z,987.11
2023-04-12T21:20:40.596Z,987.00
2023-04-12T21:25:40.534Z,986.95
2023-04-12T21:30:40.461Z,986.94
2023-04-12T21:35:40.656Z,987.03
2023-04-12T21:40:40.320Z,987.13
2023-04-12T21:45:40.287Z,987.16
2023-04-12T21:50:40.194Z,987.04
2023-04-12T21:55:40.162Z,987.13
2023-04-12T22:00:40.160Z,987.00
2023-04-12T22:05:40.004Z,987.04
2023-04-12T22:10:39.925Z,986.95
2023-04-12T22:15:39.863Z,986.91
2023-04-12T22:20:39.817Z,987.08
2023-04-12T22:25:39.728Z,987.04
2023-04-12T22:30:39.858Z,986.96
2023-04-12T22:35:39.600Z,986.86
2023-04-12T22:40:39.534Z,987.01
2023-04-12T22:45:39.471Z,987.00
2023-04-12T22:50:39.406Z,987.18
2023-04-12T22:55:39.343Z,987.22
2023-04-12T23:00:39.305Z,987.38
2023-04-12T23:05:39.203Z,987.42
2023-04-12T23:10:39.136Z,987.37
2023-04-12T23:15:39.098Z,987.51
2023-04-12T23:20:39.026Z,987.52
2023-04-12T23:25:39.502Z,987.55
2023-04-12T23:30:38.882Z,987.62
2023-04-12T23:35:38.812Z,987.55
2023-04-12T23:40:38.737Z,987.49
2023-04-12T23:45:38.682Z,987.51
2023-04-12T23:50:38.627Z,987.58
2023-04-12T23:55:38.558Z,987.59
